Time;durP1;ratioP1;P1;durP2;ratioP2;P2;SDS_P1;SDS_P2;PMS_P1;PMS_P2;Temp;Humidity;BMP_temperature;BMP_pressure;BME280_temperature;BME280_humidity;BME280_pressure;Samples;Min_cycle;Max_cycle;Signal;HPM_P1;HPM_P2
2022/07/16 00:01:22;;;;;;;3.83;2.30;;;;;;;15.57;65.64;93601.53;5110597;28;20477;-41
2022/07/16 00:01:45;;;;;;;4.22;2.10;;;;;;;15.27;66.67;93601.91;5109673;28;20073;-41
2022/07/16 00:04:11;;;;;;;3.67;2.80;;;;;;;15.20;67.43;93603.47;5110247;28;20427;-40
2022/07/16 00:06:37;;;;;;;11.80;10.93;;;;;;;15.34;67.23;93599.00;5110486;28;20016;-41
2022/07/16 00:09:03;;;;;;;8.73;8.32;;;;;;;15.35;66.16;93603.28;5098145;28;20473;-41
2022/07/16 00:11:28;;;;;;;3.05;2.75;;;;;;;15.37;66.29;93600.66;5089797;28;20032;-40
2022/07/16 00:13:54;;;;;;;3.88;2.35;;;;;;;15.20;66.86;93603.47;5089935;28;20089;-40
2022/07/16 00:16:19;;;;;;;4.00;2.88;;;;;;;14.97;66.64;93575.19;5089907;28;20027;-43
2022/07/16 00:21:28;;;;;;;2.30;2.13;;;;;;;14.88;67.41;93601.59;5090114;28;20626;-42
2022/07/16 00:23:54;;;;;;;3.67;2.42;;;;;;;14.82;67.43;93600.38;5099275;28;20047;-45
2022/07/16 00:26:19;;;;;;;7.90;7.47;;;;;;;14.71;67.54;93603.66;5101983;28;20161;-44
2022/07/16 00:28:45;;;;;;;12.73;12.07;;;;;;;14.66;67.92;93599.09;5094476;28;20024;-44
2022/07/16 00:31:11;;;;;;;3.78;2.80;;;;;;;14.78;68.10;93600.06;5101257;28;20023;-42
2022/07/16 00:33:37;;;;;;;6.45;3.53;;;;;;;14.68;67.89;93588.88;5108349;28;20076;-41
2022/07/16 00:36:02;;;;;;;10.88;10.13;;;;;;;14.75;67.57;93604.00;5104112;28;20030;-46
2022/07/16 00:38:28;;;;;;;15.43;13.90;;;;;;;14.91;67.79;93606.03;5106507;28;20216;-41
2022/07/16 00:40:53;;;;;;;11.70;6.07;;;;;;;14.90;67.30;93604.53;5114046;28;20027;-42
2022/07/16 00:43:19;;;;;;;8.88;8.27;;;;;;;14.99;66.47;93586.47;5113574;28;20507;-41
2022/07/16 00:45:44;;;;;;;2.67;2.13;;;;;;;14.91;66.39;93605.28;5112052;28;20041;-40
2022/07/16 00:48:11;;;;;;;2.83;2.40;;;;;;;14.70;67.60;93599.41;5112543;28;20031;-40
2022/07/16 00:50:38;;;;;;;3.75;2.38;;;;;;;14.58;68.14;93599.16;5102148;28;20020;-40
2022/07/16 00:53:04;;;;;;;1.73;1.63;;;;;;;14.51;68.46;93604.81;5091883;28;20028;-40
2022/07/16 00:55:30;;;;;;;4.60;2.17;;;;;;;14.41;68.74;93607.47;5093027;28;20024;-40
2022/07/16 00:57:57;;;;;;;2.08;1.80;;;;;;;14.29;68.98;93589.81;5093371;28;20035;-40
2022/07/16 01:00:22;;;;;;;3.17;2.80;;;;;;;14.34;69.34;93600.69;5093349;28;20024;-40
2022/07/16 01:02:48;;;;;;;2.75;2.45;;;;;;;14.48;69.24;93594.81;5093366;28;20562;-40
2022/07/16 01:05:14;;;;;;;3.72;2.63;;;;;;;14.49;69.30;93594.25;5092930;28;20534;-40
2022/07/16 01:07:39;;;;;;;3.33;2.58;;;;;;;14.43;69.60;93593.75;5099751;28;20024;-40
2022/07/16 01:10:05;;;;;;;4.72;2.55;;;;;;;14.57;69.49;93594.19;5100902;28;20027;-40
2022/07/16 01:12:31;;;;;;;2.67;2.30;;;;;;;14.82;68.22;93595.56;5103059;28;20019;-40
2022/07/16 01:14:57;;;;;;;2.63;2.17;;;;;;;14.97;66.99;93592.59;5101383;28;20098;-40
2022/07/16 01:17:22;;;;;;;2.70;2.00;;;;;;;14.78;67.57;93597.28;5101163;28;20091;-40
2022/07/16 01:19:48;;;;;;;2.08;1.98;;;;;;;14.66;67.50;93596.31;5102861;28;20090;-44
2022/07/16 01:22:20;;;;;;;2.28;2.08;;;;;;;14.50;68.13;93590.16;5102958;28;20488;-48
2022/07/16 01:24:46;;;;;;;2.10;2.00;;;;;;;14.44;68.24;93600.78;5102586;28;20020;-44
2022/07/16 01:27:12;;;;;;;2.53;2.33;;;;;;;14.50;67.80;93598.50;5102762;28;20051;-45
2022/07/16 01:29:37;;;;;;;2.17;2.00;;;;;;;14.33;67.87;93599.22;5099310;28;20039;-44
2022/07/16 01:32:03;;;;;;;1.90;1.80;;;;;;;14.28;67.99;93596.66;5099794;28;20074;-44
2022/07/16 01:34:28;;;;;;;2.30;2.00;;;;;;;14.27;68.37;93597.97;5102327;28;20035;-44
2022/07/16 01:37:03;;;;;;;2.35;2.00;;;;;;;14.15;69.25;93594.91;5103063;28;20020;-41
2022/07/16 01:39:30;;;;;;;2.45;2.10;;;;;;;14.28;68.90;93599.44;5099687;28;20052;-41
2022/07/16 01:41:58;;;;;;;2.30;2.00;;;;;;;14.17;69.62;93602.66;5100284;28;20016;-41
2022/07/16 01:44:25;;;;;;;5.07;2.22;;;;;;;14.28;69.06;93604.97;5101190;28;20512;-41
2022/07/16 01:46:55;;;;;;;2.65;2.22;;;;;;;14.39;68.73;93599.72;5101988;28;20107;-41
2022/07/16 01:49:21;;;;;;;2.30;2.10;;;;;;;14.26;68.62;93596.47;5100036;28;20042;-41
2022/07/16 01:51:47;;;;;;;2.90;2.30;;;;;;;14.14;68.72;93609.38;5103145;28;20023;-41
2022/07/16 01:54:12;;;;;;;2.30;2.10;;;;;;;14.03;69.33;93601.50;5103086;28;20024;-42
2022/07/16 01:56:38;;;;;;;2.25;2.05;;;;;;;14.13;68.39;93599.56;5102945;28;20050;-42
2022/07/16 01:59:04;;;;;;;2.22;2.03;;;;;;;13.96;69.11;93600.25;5101262;28;20031;-41
2022/07/16 02:01:29;;;;;;;2.92;2.40;;;;;;;13.86;68.77;93601.47;5107998;28;20416;-40
2022/07/16 02:03:55;;;;;;;3.92;2.35;;;;;;;13.75;69.79;93605.41;5112198;28;20386;-41
2022/07/16 02:06:20;;;;;;;2.90;2.47;;;;;;;13.91;69.08;93606.03;5112082;28;20527;-43
2022/07/16 02:08:46;;;;;;;4.30;2.60;;;;;;;14.14;68.05;93601.75;5112156;28;20015;-42
2022/07/16 02:11:12;;;;;;;2.58;2.38;;;;;;;14.27;67.49;93603.53;5111995;28;20559;-42
2022/07/16 02:13:37;;;;;;;6.82;2.72;;;;;;;14.28;67.93;93599.44;5111609;28;20028;-41
2022/07/16 02:16:03;;;;;;;2.40;2.20;;;;;;;14.40;67.26;93603.97;5112197;28;20495;-42
2022/07/16 02:18:28;;;;;;;2.30;2.10;;;;;;;14.30;67.83;93608.69;5112073;28;20107;-43
2022/07/16 02:20:55;;;;;;;2.90;2.60;;;;;;;13.99;68.66;93604.66;5111885;28;20396;-42
2022/07/16 02:23:20;;;;;;;2.78;2.47;;;;;;;13.73;69.79;93605.22;5111753;28;20034;-42
2022/07/16 02:25:46;;;;;;;3.38;2.42;;;;;;;13.68;69.44;93618.03;5111774;28;20111;-42
2022/07/16 02:28:11;;;;;;;3.15;1.85;;;;;;;13.68;69.20;93620.81;5111512;28;20031;-42
2022/07/16 02:30:45;;;;;;;3.28;2.00;;;;;;;13.67;69.11;93615.81;5094893;28;20058;-42
2022/07/16 02:33:13;;;;;;;2.47;2.28;;;;;;;13.49;69.46;93603.91;5090019;28;20487;-42
2022/07/16 02:35:39;;;;;;;3.42;2.35;;;;;;;13.49;69.63;93612.22;5090808;28;20023;-42
2022/07/16 02:38:06;;;;;;;3.65;2.15;;;;;;;13.73;69.49;93615.63;5090430;28;20048;-42
2022/07/16 02:40:33;;;;;;;2.83;2.35;;;;;;;13.55;69.81;93621.09;5091401;28;20051;-42
2022/07/16 02:42:59;;;;;;;2.60;2.40;;;;;;;13.57;70.12;93628.84;5091427;28;20023;-42
2022/07/16 02:45:24;;;;;;;2.13;2.03;;;;;;;13.52;70.21;93618.69;5090997;28;20031;-43
2022/07/16 02:47:50;;;;;;;2.65;2.45;;;;;;;13.43;70.86;93613.75;5095081;28;20011;-43
2022/07/16 02:50:16;;;;;;;2.53;2.33;;;;;;;13.49;70.10;93612.22;5110457;28;20411;-43
2022/07/16 02:52:41;;;;;;;2.63;2.15;;;;;;;13.63;69.63;93624.53;5111610;28;20011;-44
2022/07/16 02:55:07;;;;;;;2.65;2.22;;;;;;;13.50;69.87;93621.28;5111643;28;20097;-43
2022/07/16 02:57:32;;;;;;;2.55;2.35;;;;;;;13.50;69.68;93619.25;5111092;28;20405;-43
2022/07/16 02:59:58;;;;;;;2.20;2.00;;;;;;;13.54;69.33;93618.84;5111289;28;20030;-42
2022/07/16 03:02:24;;;;;;;3.50;2.05;;;;;;;13.80;68.67;93625.91;5111066;28;20023;-43
2022/07/16 03:04:49;;;;;;;2.97;2.13;;;;;;;13.78;68.09;93632.03;5111135;28;20053;-42
2022/07/16 03:07:15;;;;;;;2.50;2.30;;;;;;;13.52;69.01;93627.00;5109967;28;20034;-42
2022/07/16 03:09:40;;;;;;;3.58;2.20;;;;;;;13.60;69.14;93630.47;5110979;28;20102;-42
2022/07/16 03:12:06;;;;;;;2.45;2.25;;;;;;;13.65;69.08;93633.03;5109663;28;20024;-42
2022/07/16 03:14:31;;;;;;;2.95;2.00;;;;;;;13.15;70.72;93628.69;5111202;28;20038;-42
2022/07/16 03:16:56;;;;;;;2.83;2.58;;;;;;;13.49;70.39;93634.41;5110915;28;20019;-41
2022/07/16 03:19:22;;;;;;;2.58;2.38;;;;;;;13.67;69.53;93647.09;5111366;28;20023;-44
2022/07/16 03:21:47;;;;;;;2.67;2.30;;;;;;;13.51;70.16;93648.47;5110830;28;20015;-45
2022/07/16 03:24:13;;;;;;;2.70;2.50;;;;;;;13.39;70.74;93641.13;5110666;28;20036;-46
2022/07/16 03:26:38;;;;;;;2.53;2.33;;;;;;;13.25;71.05;93646.22;5110809;28;20031;-45
2022/07/16 03:29:04;;;;;;;8.82;2.75;;;;;;;13.12;71.04;93646.44;5108496;28;20102;-46
2022/07/16 03:31:29;;;;;;;5.30;2.58;;;;;;;13.21;70.71;93643.06;5089371;28;20028;-45
2022/07/16 03:33:55;;;;;;;2.47;2.17;;;;;;;13.17;70.72;93647.50;5090662;28;20027;-44
2022/07/16 03:36:21;;;;;;;2.50;2.30;;;;;;;13.29;70.96;93654.88;5092187;28;20020;-44
2022/07/16 03:39:05;;;;;;;2.65;2.20;;;;;;;13.34;70.61;93653.91;5110513;28;20131;-43
2022/07/16 03:41:32;;;;;;;3.83;2.42;;;;;;;13.23;70.56;93645.28;5110579;28;20023;-44
2022/07/16 03:43:59;;;;;;;2.42;2.22;;;;;;;13.40;70.40;93648.91;5109517;28;20110;-43
2022/07/16 03:46:24;;;;;;;3.92;2.17;;;;;;;13.35;70.51;93655.41;5110688;28;20046;-44
2022/07/16 03:48:50;;;;;;;2.40;2.20;;;;;;;13.51;70.64;93654.00;5110429;28;20480;-43
2022/07/16 03:51:15;;;;;;;6.30;2.53;;;;;;;13.49;70.58;93664.94;5110753;28;20015;-44
2022/07/16 03:53:41;;;;;;;6.45;2.60;;;;;;;13.39;71.18;93641.13;5110615;28;20024;-42
2022/07/16 03:56:07;;;;;;;2.55;2.35;;;;;;;13.59;70.82;93668.59;5110683;28;20095;-41
2022/07/16 03:58:32;;;;;;;2.50;2.28;;;;;;;13.62;71.00;93661.91;5110630;28;20023;-42
2022/07/16 04:00:58;;;;;;;2.63;2.42;;;;;;;13.53;71.81;93662.53;5109783;28;20020;-42
2022/07/16 04:03:24;;;;;;;4.30;2.85;;;;;;;13.54;72.14;93654.91;5114417;28;20019;-42
2022/07/16 04:05:50;;;;;;;2.65;2.33;;;;;;;13.63;72.55;93663.38;5114775;27;20047;-43
2022/07/16 04:08:16;;;;;;;2.13;1.98;;;;;;;13.66;72.59;93659.47;5114723;28;20482;-44
2022/07/16 04:10:41;;;;;;;3.55;2.60;;;;;;;13.71;72.76;93666.09;5114588;28;20032;-44
2022/07/16 04:13:08;;;;;;;3.20;2.67;;;;;;;13.84;72.58;93671.38;5114723;28;20504;-43
2022/07/16 04:15:33;;;;;;;2.78;2.58;;;;;;;13.82;72.71;93676.06;5114516;28;20058;-44
2022/07/16 04:17:59;;;;;;;2.50;2.30;;;;;;;13.99;71.91;93671.28;5107930;28;20493;-44
2022/07/16 04:20:24;;;;;;;3.13;2.75;;;;;;;14.13;71.56;93671.75;5106620;28;20024;-42
2022/07/16 04:22:50;;;;;;;2.47;2.28;;;;;;;14.16;71.57;93668.56;5113266;28;20469;-43
2022/07/16 04:25:15;;;;;;;4.57;2.90;;;;;;;14.15;71.99;93666.38;5114148;28;20050;-44
2022/07/16 04:27:42;;;;;;;4.65;2.55;;;;;;;14.11;72.61;93666.03;5113938;28;20054;-44
2022/07/16 04:30:08;;;;;;;2.97;2.67;;;;;;;14.36;72.06;93670.28;5101078;28;20024;-43
2022/07/16 04:32:35;;;;;;;3.40;3.10;;;;;;;14.38;71.85;93664.16;5093953;28;20024;-43
2022/07/16 04:35:00;;;;;;;4.97;3.20;;;;;;;14.33;73.09;93673.47;5093533;28;20027;-43
2022/07/16 04:37:26;;;;;;;4.53;3.25;;;;;;;14.39;72.55;93646.19;5093422;28;20028;-44
2022/07/16 04:39:52;;;;;;;3.33;2.97;;;;;;;14.59;72.00;93663.81;5093304;28;20508;-45
2022/07/16 04:42:18;;;;;;;3.03;2.63;;;;;;;14.83;71.04;93668.56;5102549;28;20058;-44
2022/07/16 04:44:43;;;;;;;7.55;3.28;;;;;;;14.67;71.39;93645.00;5113788;28;20064;-44
2022/07/16 04:47:09;;;;;;;12.45;3.05;;;;;;;14.91;70.72;93669.22;5113797;28;20020;-44
2022/07/16 04:49:35;;;;;;;5.78;3.17;;;;;;;15.07;70.69;93676.81;5113856;28;20019;-42
2022/07/16 04:52:01;;;;;;;3.80;2.75;;;;;;;15.03;70.82;93662.59;5113702;28;20424;-42
2022/07/16 04:54:27;;;;;;;3.40;3.08;;;;;;;15.19;70.50;93668.72;5111876;28;20106;-44
2022/07/16 04:56:52;;;;;;;3.00;2.80;;;;;;;15.38;71.40;93665.34;5113000;28;20523;-42
2022/07/16 04:59:18;;;;;;;5.63;2.78;;;;;;;15.48;70.80;93663.41;5113781;28;20098;-45
2022/07/16 05:01:43;;;;;;;3.40;3.10;;;;;;;15.53;71.26;93673.53;5113725;28;20537;-43
2022/07/16 05:04:09;;;;;;;2.95;2.70;;;;;;;15.58;71.29;93658.63;5113749;28;20512;-45
2022/07/16 05:06:34;;;;;;;3.88;2.95;;;;;;;15.70;71.26;93662.38;5113371;28;20463;-44
2022/07/16 05:09:01;;;;;;;3.08;2.50;;;;;;;15.78;71.09;93663.00;5113277;28;20027;-45
2022/07/16 05:11:27;;;;;;;4.10;3.05;;;;;;;15.85;71.41;93662.88;5113576;28;20028;-45
2022/07/16 05:13:53;;;;;;;3.45;3.13;;;;;;;15.95;70.71;93660.16;5111553;28;20110;-43
2022/07/16 05:16:19;;;;;;;7.30;3.53;;;;;;;15.94;71.27;93662.22;5112316;27;20028;-44
2022/07/16 05:18:45;;;;;;;47.80;20.55;;;;;;;16.10;71.84;93662.72;5113172;28;20064;-43
2022/07/16 05:21:10;;;;;;;41.13;17.10;;;;;;;16.30;71.75;93660.75;5113101;28;20412;-43
2022/07/16 05:23:36;;;;;;;30.15;14.25;;;;;;;16.40;71.47;93664.28;5113049;28;20057;-43
2022/07/16 05:26:02;;;;;;;21.70;9.82;;;;;;;16.46;69.32;93668.28;5113204;28;20039;-43
2022/07/16 05:28:27;;;;;;;43.00;16.90;;;;;;;16.57;68.65;93662.19;5112947;28;20467;-43
2022/07/16 05:30:52;;;;;;;51.70;19.33;;;;;;;16.68;68.89;93664.41;5111001;28;20031;-43
2022/07/16 05:33:18;;;;;;;48.22;19.40;;;;;;;16.78;68.58;93663.69;5112678;28;20058;-42
2022/07/16 05:35:43;;;;;;;26.40;13.45;;;;;;;16.89;69.21;93657.56;5112917;28;20027;-43
2022/07/16 05:38:09;;;;;;;26.13;13.80;;;;;;;16.94;68.81;93664.88;5110290;28;20479;-44
2022/07/16 05:40:34;;;;;;;27.00;12.68;;;;;;;17.03;69.46;93662.09;5092618;28;20031;-46
2022/07/16 05:43:00;;;;;;;24.05;9.88;;;;;;;17.12;69.85;93663.44;5107521;28;20133;-45
2022/07/16 05:45:25;;;;;;;5.60;4.40;;;;;;;17.19;70.33;93663.31;5112446;28;20100;-45
2022/07/16 05:47:51;;;;;;;3.28;2.78;;;;;;;17.20;70.67;93661.22;5111928;28;20024;-45
2022/07/16 05:50:16;;;;;;;9.65;4.28;;;;;;;17.39;70.77;93669.59;5111536;28;20016;-44
2022/07/16 05:52:42;;;;;;;4.15;3.13;;;;;;;17.65;69.71;93668.72;5111776;28;20039;-44
2022/07/16 05:55:08;;;;;;;4.75;3.15;;;;;;;17.73;69.71;93663.00;5104935;28;20044;-44
2022/07/16 05:57:33;;;;;;;2.80;2.22;;;;;;;17.81;68.94;93664.28;5102780;28;20092;-44
2022/07/16 05:59:59;;;;;;;3.28;2.47;;;;;;;17.98;67.48;93654.97;5112606;28;20027;-44
2022/07/16 06:02:24;;;;;;;2.42;2.22;;;;;;;18.12;65.71;93667.91;5106725;28;20463;-44
2022/07/16 06:04:50;;;;;;;2.58;2.38;;;;;;;18.12;64.60;93669.94;5097586;28;20087;-44
2022/07/16 06:07:16;;;;;;;2.95;2.53;;;;;;;18.33;64.98;93669.28;5110563;28;20412;-45
2022/07/16 06:09:42;;;;;;;3.78;2.53;;;;;;;18.40;64.33;93669.09;5111979;28;20027;-44
2022/07/16 06:12:07;;;;;;;2.45;2.25;;;;;;;18.53;62.76;93670.69;5112027;28;20016;-44
2022/07/16 06:14:33;;;;;;;1.80;1.70;;;;;;;18.66;62.12;93670.19;5104735;28;20023;-44
2022/07/16 06:16:58;;;;;;;2.85;2.00;;;;;;;18.76;61.69;93676.44;5103411;28;20612;-45
2022/07/16 06:19:24;;;;;;;3.33;2.30;;;;;;;18.82;62.32;93662.88;5091449;28;20065;-44
2022/07/16 06:21:49;;;;;;;2.85;2.42;;;;;;;18.92;61.47;93666.34;5096658;28;20030;-44
2022/07/16 06:24:15;;;;;;;2.70;2.45;;;;;;;19.13;62.95;93669.16;5101213;28;20052;-45
2022/07/16 06:26:47;;;;;;;4.25;3.05;;;;;;;19.28;62.48;93670.81;5093518;28;20699;-44
2022/07/16 06:29:16;;;;;;;4.32;2.50;;;;;;;19.37;61.49;93670.78;5096309;28;20016;-44
2022/07/16 06:31:42;;;;;;;2.55;2.20;;;;;;;19.34;59.58;93651.63;5111709;28;20020;-44
2022/07/16 06:34:08;;;;;;;2.45;2.25;;;;;;;19.58;59.44;93673.53;5110612;28;20065;-44
2022/07/16 06:36:33;;;;;;;10.73;2.85;;;;;;;19.74;59.68;93667.50;5105308;28;20027;-44
2022/07/16 06:38:59;;;;;;;6.45;2.50;;;;;;;19.76;60.46;93667.63;5098273;28;20528;-44
2022/07/16 06:41:24;;;;;;;3.25;2.90;;;;;;;20.08;59.06;93664.06;5091347;28;20047;-44
2022/07/16 06:43:50;;;;;;;3.22;2.60;;;;;;;20.24;59.54;93660.22;5091184;28;20020;-44
2022/07/16 06:46:15;;;;;;;4.57;2.78;;;;;;;20.33;59.64;93659.38;5091294;28;20067;-45
2022/07/16 06:48:41;;;;;;;4.78;2.88;;;;;;;20.47;58.81;93670.72;5091045;28;20547;-45
2022/07/16 06:51:06;;;;;;;3.35;2.50;;;;;;;20.64;57.62;93656.31;5091191;28;20027;-44
2022/07/16 06:53:35;;;;;;;3.03;2.72;;;;;;;20.73;57.00;93657.53;5091113;28;20134;-45
2022/07/16 06:56:02;;;;;;;5.45;3.30;;;;;;;20.66;56.63;93650.81;5089960;28;20019;-43
2022/07/16 06:58:27;;;;;;;3.47;3.15;;;;;;;20.76;57.03;93659.13;5090820;28;20089;-45
2022/07/16 07:00:53;;;;;;;3.58;2.78;;;;;;;20.85;57.14;93656.22;5091095;28;20048;-44
2022/07/16 07:03:18;;;;;;;9.75;3.30;;;;;;;20.94;56.90;93660.22;5103362;28;20053;-44
2022/07/16 07:05:43;;;;;;;4.00;3.30;;;;;;;21.02;58.33;93660.69;5104097;28;20060;-45
2022/07/16 07:08:09;;;;;;;4.22;3.47;;;;;;;21.13;57.08;93666.31;5100746;28;20469;-45
2022/07/16 07:10:34;;;;;;;3.33;3.03;;;;;;;21.35;56.99;93666.13;5101991;28;20565;-43
2022/07/16 07:13:00;;;;;;;4.00;2.85;;;;;;;21.40;56.82;93667.81;5110701;28;20480;-44
2022/07/16 07:15:26;;;;;;;2.92;2.30;;;;;;;21.49;56.73;93664.88;5100298;28;20024;-45
2022/07/16 07:17:51;;;;;;;11.40;3.22;;;;;;;21.63;57.44;93664.94;5093677;28;20100;-44
2022/07/16 07:20:17;;;;;;;2.53;2.28;;;;;;;21.78;56.08;93662.31;5097222;28;20027;-43
2022/07/16 07:22:43;;;;;;;2.80;2.30;;;;;;;22.04;53.46;93665.13;5090450;28;20028;-42
2022/07/16 07:25:09;;;;;;;3.00;2.70;;;;;;;22.14;55.13;93660.06;5094966;28;20240;-43
2022/07/16 07:27:35;;;;;;;8.00;2.60;;;;;;;22.12;56.42;93665.56;5110537;28;20031;-45
2022/07/16 07:30:01;;;;;;;2.40;2.20;;;;;;;22.47;53.78;93666.81;5098849;28;20076;-45
2022/07/16 07:32:26;;;;;;;16.73;2.83;;;;;;;22.88;55.00;93669.72;5090624;28;20078;-44
2022/07/16 07:34:52;;;;;;;2.55;2.35;;;;;;;23.46;51.66;93668.44;5095503;28;20480;-44
2022/07/16 07:37:17;;;;;;;12.35;3.65;;;;;;;24.28;49.59;93666.09;5093671;28;20028;-44
2022/07/16 07:39:43;;;;;;;3.78;2.30;;;;;;;25.53;46.28;93666.78;5101523;28;20059;-46
2022/07/16 07:42:09;;;;;;;2.90;2.60;;;;;;;26.71;41.88;93667.25;5090198;28;20043;-45
2022/07/16 07:44:35;;;;;;;5.25;2.03;;;;;;;27.20;41.43;93670.50;5089006;28;20020;-45
2022/07/16 07:47:00;;;;;;;2.72;1.98;;;;;;;28.64;39.85;93676.06;5094226;28;20036;-45
2022/07/16 07:49:26;;;;;;;2.17;1.98;;;;;;;29.79;37.08;93677.97;5090270;28;20032;-45
2022/07/16 07:51:54;;;;;;;2.35;2.15;;;;;;;30.19;34.31;93680.41;5101770;28;20535;-44
2022/07/16 07:54:19;;;;;;;3.40;1.83;;;;;;;31.09;34.19;93679.69;5090122;28;20073;-44
2022/07/16 07:56:45;;;;;;;10.05;2.60;;;;;;;31.61;33.61;93671.47;5090334;28;20047;-46
2022/07/16 07:59:10;;;;;;;6.45;2.60;;;;;;;32.44;32.83;93676.53;5089929;28;20024;-47
2022/07/16 08:01:36;;;;;;;6.30;2.55;;;;;;;33.50;29.96;93671.63;5098421;28;20044;-45
2022/07/16 08:04:01;;;;;;;2.42;2.13;;;;;;;34.39;27.76;93675.41;5097137;28;20217;-45
2022/07/16 08:06:27;;;;;;;2.28;1.88;;;;;;;33.87;28.94;93681.34;5091427;28;20073;-43
2022/07/16 08:08:52;;;;;;;2.50;2.20;;;;;;;32.81;29.43;93675.66;5101238;28;20069;-42
2022/07/16 08:11:18;;;;;;;2.05;1.85;;;;;;;33.05;29.56;93686.06;5099682;28;21559;-43
2022/07/16 08:13:43;;;;;;;2.50;2.30;;;;;;;32.71;30.92;93678.38;5098449;28;20032;-44
2022/07/16 08:16:09;;;;;;;2.20;1.98;;;;;;;32.82;30.44;93679.97;5099394;28;20020;-43
2022/07/16 08:18:34;;;;;;;2.15;1.85;;;;;;;32.60;29.83;93690.34;5096500;28;20020;-43
2022/07/16 08:21:00;;;;;;;2.28;1.70;;;;;;;32.03;31.81;93682.97;5094703;28;20040;-41
2022/07/16 08:26:10;;;;;;;2.20;1.85;;;;;;;32.74;30.40;93688.44;5095746;28;20164;-43
2022/07/16 08:28:40;;;;;;;7.22;2.20;;;;;;;33.33;29.32;93684.25;5096283;28;20112;-44
2022/07/16 08:31:05;;;;;;;2.22;1.60;;;;;;;33.27;30.28;93681.31;5097512;28;20016;-44
2022/07/16 08:33:31;;;;;;;4.97;2.10;;;;;;;33.62;27.97;93685.34;5097278;28;20501;-43
2022/07/16 08:35:56;;;;;;;7.25;1.92;;;;;;;34.39;28.61;93686.88;5099003;28;20554;-44
2022/07/16 08:38:22;;;;;;;1.70;1.60;;;;;;;34.86;27.77;93680.09;5097628;28;20139;-44
2022/07/16 08:40:49;;;;;;;3.70;1.85;;;;;;;35.56;27.33;93688.38;5100113;28;20048;-44
2022/07/16 08:43:14;;;;;;;3.45;1.83;;;;;;;35.64;25.92;93676.94;5098823;28;20024;-47
2022/07/16 08:45:40;;;;;;;9.63;2.03;;;;;;;35.91;25.55;93674.16;5098061;28;20089;-44
2022/07/16 08:48:06;;;;;;;6.15;1.98;;;;;;;36.10;25.39;93672.78;5096395;28;20085;-44
2022/07/16 08:50:32;;;;;;;14.15;2.47;;;;;;;36.53;25.38;93674.28;5102968;28;20547;-45
2022/07/16 08:52:59;;;;;;;5.30;2.08;;;;;;;36.60;25.38;93677.88;5102576;28;20020;-45
2022/07/16 08:55:26;;;;;;;8.32;2.17;;;;;;;36.80;24.45;93672.09;5100252;28;20028;-45
2022/07/16 08:57:52;;;;;;;2.80;1.52;;;;;;;36.85;24.69;93668.50;5103492;28;20027;-45
2022/07/16 09:00:19;;;;;;;2.83;2.05;;;;;;;37.02;24.45;93669.22;5104430;28;20028;-43
2022/07/16 09:02:45;;;;;;;1.88;1.63;;;;;;;37.36;24.60;93677.78;5103210;28;20024;-43
2022/07/16 09:05:11;;;;;;;1.70;1.60;;;;;;;37.31;24.56;93675.63;5101475;28;20031;-41
2022/07/16 09:07:37;;;;;;;2.10;1.90;;;;;;;36.48;24.97;93679.31;5101628;28;20479;-41
2022/07/16 09:10:07;;;;;;;2.05;1.85;;;;;;;35.73;27.27;93672.66;5101343;28;20541;-40
2022/07/16 09:12:41;;;;;;;4.03;2.00;;;;;;;35.65;25.34;93678.38;5102629;28;20023;-41
2022/07/16 09:15:26;;;;;;;2.97;1.80;;;;;;;35.08;26.28;93684.53;5101880;28;20020;-40
2022/07/16 09:18:30;;;;;;;3.10;1.73;;;;;;;34.87;28.18;93680.81;5102014;28;20024;-40
2022/07/16 09:20:58;;;;;;;2.20;2.00;;;;;;;34.62;27.43;93677.06;5101777;28;20138;-42
2022/07/16 09:23:32;;;;;;;3.28;2.00;;;;;;;34.95;26.77;93675.13;5101973;28;20065;-42
2022/07/16 09:25:59;;;;;;;8.20;1.90;;;;;;;35.24;26.83;93670.28;5099679;28;20046;-42
2022/07/16 09:28:26;;;;;;;2.45;1.77;;;;;;;35.72;26.22;93662.59;5103326;28;20039;-43
2022/07/16 09:30:52;;;;;;;3.08;2.28;;;;;;;36.17;26.71;93666.31;5106604;28;20512;-43
2022/07/16 09:33:22;;;;;;;3.47;1.80;;;;;;;36.12;25.82;93662.00;5096284;28;20035;-43
2022/07/16 09:35:49;;;;;;;2.00;1.80;;;;;;;36.59;25.00;93662.75;5101073;28;20511;-43
2022/07/16 09:38:14;;;;;;;1.83;1.73;;;;;;;37.06;25.52;93664.16;5101437;28;20056;-43
2022/07/16 09:40:45;;;;;;;2.05;1.95;;;;;;;37.37;24.32;93661.94;5109217;28;20139;-42
2022/07/16 09:43:11;;;;;;;4.35;1.67;;;;;;;37.92;24.14;93668.91;5104006;28;20043;-42
2022/07/16 09:45:39;;;;;;;3.60;1.98;;;;;;;38.02;22.24;93664.53;5111837;28;20031;-41
2022/07/16 09:48:25;;;;;;;3.42;1.45;;;;;;;37.47;23.51;93661.19;5106418;28;20032;-43
2022/07/16 09:50:52;;;;;;;5.72;1.77;;;;;;;37.58;24.81;93659.69;5098715;28;20075;-42
2022/07/16 09:53:23;;;;;;;2.28;1.80;;;;;;;37.86;22.17;93657.41;5112474;28;20064;-44
2022/07/16 09:56:06;;;;;;;2.60;2.33;;;;;;;37.04;22.43;93649.78;5103887;28;20046;-42
2022/07/16 09:58:32;;;;;;;5.93;1.88;;;;;;;36.64;23.44;93655.56;5110269;28;20114;-40
2022/07/16 10:00:58;;;;;;;6.47;2.03;;;;;;;36.50;23.87;93652.69;5109654;28;20470;-41
2022/07/16 10:03:25;;;;;;;3.38;1.83;;;;;;;36.38;23.42;93650.53;5106950;28;20056;-42
2022/07/16 10:05:51;;;;;;;2.22;1.92;;;;;;;36.24;24.88;93641.16;5102266;28;20419;-41
2022/07/16 10:08:16;;;;;;;3.83;2.15;;;;;;;35.65;26.88;93643.19;5110313;28;20027;-43
2022/07/16 10:10:43;;;;;;;3.08;1.90;;;;;;;35.15;26.07;93654.44;5103897;28;20474;-42
2022/07/16 10:13:10;;;;;;;3.22;2.55;;;;;;;35.43;27.27;93643.09;5098490;28;20104;-42
2022/07/16 10:15:36;;;;;;;3.10;1.73;;;;;;;35.55;26.01;93635.25;5101293;28;20520;-43
2022/07/16 10:18:02;;;;;;;2.35;2.15;;;;;;;35.42;25.60;93639.50;5100983;28;20106;-42
2022/07/16 10:20:35;;;;;;;2.25;2.05;;;;;;;35.52;26.21;93627.38;5098665;28;20081;-42
2022/07/16 10:23:05;;;;;;;5.35;2.75;;;;;;;35.78;24.52;93633.88;5098902;28;20055;-42
2022/07/16 10:25:31;;;;;;;4.15;2.05;;;;;;;35.78;26.14;93639.63;5099953;28;20023;-43
2022/07/16 10:27:56;;;;;;;8.00;2.40;;;;;;;35.84;25.02;93643.97;5098522;28;20050;-43
2022/07/16 10:30:22;;;;;;;3.00;2.42;;;;;;;35.88;26.72;93638.22;5103895;28;20032;-43
2022/07/16 10:33:06;;;;;;;3.60;2.00;;;;;;;35.66;26.05;93648.22;5099703;28;20524;-43
2022/07/16 10:35:43;;;;;;;2.17;1.92;;;;;;;35.40;25.95;93638.75;5105536;28;20043;-42
2022/07/16 10:38:10;;;;;;;2.13;2.00;;;;;;;35.29;26.06;93635.13;5093468;28;20086;-42
2022/07/16 10:40:37;;;;;;;5.35;2.22;;;;;;;35.11;26.40;93642.97;5091511;28;20016;-43
2022/07/16 10:43:22;;;;;;;2.93;2.13;;;;;;;35.03;26.54;93643.63;5104592;28;20446;-44
2022/07/16 10:45:59;;;;;;;2.47;1.75;;;;;;;34.87;28.08;93635.59;5091443;28;20031;-44
2022/07/16 10:48:30;;;;;;;2.58;2.38;;;;;;;34.68;27.95;93621.88;5090758;28;20593;-43
2022/07/16 10:51:15;;;;;;;2.67;2.03;;;;;;;34.61;26.57;93629.72;5101279;28;20063;-43
2022/07/16 10:54:04;;;;;;;3.67;2.00;;;;;;;34.60;27.32;93636.16;5112904;28;20055;-43
2022/07/16 10:56:36;;;;;;;6.35;1.95;;;;;;;34.31;29.20;93635.91;5114217;28;20028;-43
2022/07/16 10:59:02;;;;;;;5.47;2.22;;;;;;;34.58;28.48;93630.41;5114246;28;20471;-44
2022/07/16 11:01:29;;;;;;;3.08;2.40;;;;;;;34.62;28.42;93639.75;5111488;28;20036;-44
2022/07/16 11:03:54;;;;;;;4.63;2.40;;;;;;;34.71;28.46;93640.53;5113235;28;20411;-43
2022/07/16 11:06:23;;;;;;;2.67;2.33;;;;;;;34.90;28.94;93636.34;5113694;28;20023;-42
2022/07/16 11:08:53;;;;;;;2.47;2.20;;;;;;;34.77;27.94;93641.28;5110831;28;20110;-44
2022/07/16 11:11:19;;;;;;;2.45;2.22;;;;;;;34.92;27.75;93634.22;5109977;28;20128;-44
2022/07/16 11:13:46;;;;;;;4.53;1.90;;;;;;;34.40;27.13;93635.97;5108502;28;20470;-43
2022/07/16 11:16:12;;;;;;;5.65;2.45;;;;;;;34.46;28.28;93633.19;5100218;28;20474;-43
2022/07/16 11:18:39;;;;;;;3.05;2.10;;;;;;;34.04;27.28;93630.69;5106223;28;20051;-42
2022/07/16 11:21:08;;;;;;;4.43;2.08;;;;;;;33.99;28.32;93638.47;5110371;28;20508;-45
2022/07/16 11:24:05;;;;;;;2.50;2.00;;;;;;;33.89;30.58;93640.53;5110246;28;20028;-42
2022/07/16 11:26:31;;;;;;;3.97;1.80;;;;;;;33.70;29.35;93641.78;5103923;28;20027;-43
2022/07/16 11:28:58;;;;;;;2.05;1.83;;;;;;;33.16;29.43;93636.81;5102113;28;20114;-42
2022/07/16 11:31:26;;;;;;;2.97;2.20;;;;;;;32.69;30.13;93634.75;5090289;28;20053;-42
2022/07/16 11:33:54;;;;;;;4.47;2.70;;;;;;;32.51;30.04;93640.91;5090408;28;20031;-42